Time;durP1;ratioP1;P1;durP2;ratioP2;P2;SDS_P1;SDS_P2;PMS_P1;PMS_P2;Temp;Humidity;BMP_temperature;BMP_pressure;BME280_temperature;BME280_humidity;BME280_pressure;Samples;Min_cycle;Max_cycle;Signal;HPM_P1;HPM_P2
2022/03/10 00:01:09;;;;;;;18.17;13.90;;;;;;;-0.36;97.00;101059.72;5010559;28;20598;-55
2022/03/10 00:03:34;;;;;;;19.27;14.47;;;;;;;-0.40;97.08;101060.38;5009319;28;20220;-56
2022/03/10 00:05:59;;;;;;;19.67;14.10;;;;;;;-0.45;97.63;101061.81;5008463;28;20185;-57
2022/03/10 00:08:25;;;;;;;20.43;14.20;;;;;;;-0.49;97.94;101057.38;5007157;28;20689;-54
2022/03/10 00:10:50;;;;;;;17.93;13.83;;;;;;;-0.53;97.85;101066.53;5011884;28;20685;-55
2022/03/10 00:13:16;;;;;;;16.97;13.63;;;;;;;-0.56;98.05;101070.59;5010672;28;20818;-58
2022/03/10 00:15:42;;;;;;;16.90;13.53;;;;;;;-0.60;97.92;101067.00;5007253;28;20602;-57
2022/03/10 00:18:07;;;;;;;17.10;13.10;;;;;;;-0.66;97.90;101077.75;5011523;28;20193;-56
2022/03/10 00:20:33;;;;;;;18.90;13.43;;;;;;;-0.69;97.76;101080.19;5011551;28;20197;-55
2022/03/10 00:22:58;;;;;;;17.60;13.60;;;;;;;-0.75;97.66;101076.44;5010124;28;20297;-58
2022/03/10 00:25:24;;;;;;;16.33;12.97;;;;;;;-0.81;97.51;101079.53;5008255;28;20239;-58
2022/03/10 00:27:51;;;;;;;18.87;13.87;;;;;;;-0.85;97.63;101082.75;5007270;28;20701;-56
2022/03/10 00:30:16;;;;;;;18.17;14.33;;;;;;;-0.88;97.62;101080.91;5010648;28;20189;-58
2022/03/10 00:32:49;;;;;;;17.87;14.30;;;;;;;-0.89;97.63;101085.91;5006277;28;20550;-55
2022/03/10 00:35:18;;;;;;;18.53;14.77;;;;;;;-0.93;97.42;101090.84;5011966;28;20283;-55
2022/03/10 00:37:43;;;;;;;18.17;14.63;;;;;;;-0.94;97.35;101090.78;5009241;28;20195;-55
2022/03/10 00:40:09;;;;;;;18.70;14.63;;;;;;;-0.98;97.48;101088.88;5008740;28;20199;-58
2022/03/10 00:42:38;;;;;;;18.10;15.07;;;;;;;-1.01;97.15;101093.78;5023210;28;20669;-55
2022/03/10 00:45:05;;;;;;;21.27;15.77;;;;;;;-1.06;97.32;101088.47;5011882;28;20200;-55
2022/03/10 00:47:31;;;;;;;19.23;15.63;;;;;;;-1.09;96.95;101090.84;5011725;28;20193;-55
2022/03/10 00:49:56;;;;;;;19.03;15.80;;;;;;;-1.10;96.84;101099.25;5010500;28;20547;-54
2022/03/10 00:52:21;;;;;;;20.97;17.47;;;;;;;-1.13;97.13;101092.38;5007971;28;20193;-58
2022/03/10 00:54:47;;;;;;;22.17;16.30;;;;;;;-1.13;96.97;101091.47;5011999;28;20240;-55
2022/03/10 00:57:12;;;;;;;20.50;16.70;;;;;;;-1.11;97.11;101090.78;5004733;28;20191;-54
2022/03/10 00:59:37;;;;;;;19.20;16.83;;;;;;;-1.09;97.13;101088.31;5013651;28;20207;-57
2022/03/10 01:02:03;;;;;;;20.10;16.33;;;;;;;-1.05;97.33;101091.88;5002242;28;20220;-56
2022/03/10 01:04:28;;;;;;;21.63;17.23;;;;;;;-1.05;97.45;101085.13;5011589;28;20672;-56
2022/03/10 01:06:54;;;;;;;21.43;16.87;;;;;;;-1.04;98.04;101088.53;5009657;28;20192;-56
2022/03/10 01:09:19;;;;;;;20.07;16.10;;;;;;;-1.02;98.52;101090.38;5004854;28;20231;-55
2022/03/10 01:14:20;;;;;;;20.90;15.63;;;;;;;-1.01;99.26;101101.41;5230681;23;20281;-56
2022/03/10 01:16:46;;;;;;;19.03;15.37;;;;;;;-1.03;99.61;101091.19;4990543;28;20206;-58
2022/03/10 01:19:11;;;;;;;20.27;17.10;;;;;;;-1.05;99.75;101092.75;4991323;28;20189;-56
2022/03/10 01:21:36;;;;;;;19.33;15.57;;;;;;;-1.10;99.71;101095.06;4991133;28;20201;-57
2022/03/10 01:24:02;;;;;;;19.33;16.30;;;;;;;-1.12;99.93;101095.75;4989455;28;20206;-56
2022/03/10 01:26:27;;;;;;;21.27;16.97;;;;;;;-1.16;99.77;101096.44;4988228;28;20224;-56
2022/03/10 01:28:53;;;;;;;20.63;16.07;;;;;;;-1.23;99.88;101097.78;4992940;28;20304;-55
2022/03/10 01:31:18;;;;;;;18.90;15.47;;;;;;;-1.27;99.62;101093.31;4990425;28;20268;-57
2022/03/10 01:33:44;;;;;;;19.87;16.23;;;;;;;-1.32;99.99;101095.63;4990321;28;20206;-55
2022/03/10 01:36:09;;;;;;;20.00;16.30;;;;;;;-1.33;99.99;101092.97;4989486;28;20213;-56
2022/03/10 01:38:39;;;;;;;19.17;15.50;;;;;;;-1.38;99.94;101096.19;4987377;28;20209;-55
2022/03/10 01:41:05;;;;;;;20.50;16.10;;;;;;;-1.39;99.94;101096.09;4985951;28;20186;-56
2022/03/10 01:43:31;;;;;;;21.70;16.60;;;;;;;-1.41;99.92;101088.41;4990340;28;20293;-55
2022/03/10 01:45:57;;;;;;;20.20;15.80;;;;;;;-1.43;99.93;101086.53;4990040;28;20280;-56
2022/03/10 01:48:22;;;;;;;21.63;16.20;;;;;;;-1.43;100.00;101092.50;4990498;28;20186;-56
2022/03/10 01:50:48;;;;;;;21.27;16.30;;;;;;;-1.44;99.98;101080.59;4990368;28;20714;-56
2022/03/10 01:53:14;;;;;;;22.87;15.77;;;;;;;-1.45;100.00;101095.78;4991750;28;20221;-56
2022/03/10 01:55:39;;;;;;;20.70;16.73;;;;;;;-1.48;100.00;101085.44;4990683;28;20245;-55
2022/03/10 01:58:05;;;;;;;23.80;16.83;;;;;;;-1.50;100.00;101085.34;4992238;28;20193;-56
2022/03/10 02:00:31;;;;;;;20.80;16.40;;;;;;;-1.52;100.00;101088.59;4989378;28;20463;-55
2022/03/10 02:02:56;;;;;;;25.07;18.20;;;;;;;-1.53;100.00;101082.69;4988102;28;20213;-58
2022/03/10 02:05:21;;;;;;;24.10;18.77;;;;;;;-1.55;100.00;101084.25;4988340;28;20529;-57
2022/03/10 02:10:32;;;;;;;21.00;16.77;;;;;;;-1.59;100.00;101078.13;4986944;28;20215;-54
2022/03/10 02:12:57;;;;;;;25.03;18.00;;;;;;;-1.58;100.00;101082.41;4992473;28;20724;-55
2022/03/10 02:18:12;;;;;;;23.43;17.50;;;;;;;-1.61;100.00;101077.19;4986946;28;20191;-56
2022/03/10 02:20:38;;;;;;;20.30;16.23;;;;;;;-1.59;100.00;101078.13;4987955;28;20188;-56
2022/03/10 02:23:06;;;;;;;21.53;17.37;;;;;;;-1.58;100.00;101069.72;4986038;28;20763;-56
2022/03/10 02:25:33;;;;;;;18.73;15.07;;;;;;;-1.57;100.00;101073.13;4987506;28;20657;-56
2022/03/10 02:27:59;;;;;;;20.53;16.10;;;;;;;-1.60;100.00;101065.34;4985615;28;20201;-55
2022/03/10 02:30:28;;;;;;;18.67;14.70;;;;;;;-1.62;100.00;101072.91;4987915;28;20190;-56
2022/03/10 02:32:54;;;;;;;18.43;15.30;;;;;;;-1.64;100.00;101059.25;4985397;28;20711;-56
2022/03/10 02:35:19;;;;;;;20.13;15.80;;;;;;;-1.65;100.00;101066.78;4985438;28;20209;-56
2022/03/10 02:37:45;;;;;;;22.10;16.60;;;;;;;-1.67;100.00;101070.91;4986464;28;20245;-56
2022/03/10 02:40:12;;;;;;;20.07;16.57;;;;;;;-1.70;100.00;101081.75;4986714;28;20247;-56
2022/03/10 02:42:38;;;;;;;19.17;15.67;;;;;;;-1.75;100.00;101078.13;4984271;28;20213;-57
2022/03/10 02:45:05;;;;;;;20.80;17.13;;;;;;;-1.79;100.00;101078.75;4984065;28;20205;-60
2022/03/10 02:47:30;;;;;;;22.90;17.13;;;;;;;-1.83;100.00;101082.78;4981054;28;20222;-57
2022/03/10 02:49:56;;;;;;;21.87;17.00;;;;;;;-1.89;100.00;101085.81;4985611;28;20185;-57
2022/03/10 02:52:21;;;;;;;21.53;16.43;;;;;;;-1.95;100.00;101084.63;4992716;28;20256;-56
2022/03/10 02:54:46;;;;;;;20.27;16.63;;;;;;;-2.00;100.00;101087.81;4990635;28;20221;-56
2022/03/10 02:57:13;;;;;;;20.50;16.13;;;;;;;-2.06;100.00;101073.91;4986453;28;20177;-55
2022/03/10 02:59:38;;;;;;;20.40;17.53;;;;;;;-2.09;100.00;101079.66;4984345;28;20236;-56
2022/03/10 03:02:05;;;;;;;20.70;16.90;;;;;;;-2.10;100.00;101074.53;4981219;28;20641;-56
2022/03/10 03:04:31;;;;;;;20.17;17.03;;;;;;;-2.12;100.00;101079.53;4985646;28;20236;-57
2022/03/10 03:06:56;;;;;;;22.03;17.40;;;;;;;-2.15;100.00;101089.50;4988090;28;20578;-56
2022/03/10 03:09:22;;;;;;;20.97;17.13;;;;;;;-2.17;100.00;101088.53;4988033;28;20211;-56
2022/03/10 03:11:47;;;;;;;22.70;17.07;;;;;;;-2.19;100.00;101096.03;4987292;28;20221;-56
2022/03/10 03:14:13;;;;;;;22.10;16.33;;;;;;;-2.21;100.00;101091.69;4982726;28;20229;-55
2022/03/10 03:16:39;;;;;;;22.10;17.77;;;;;;;-2.24;100.00;101096.56;4984579;28;20196;-56
2022/03/10 03:19:05;;;;;;;23.73;18.67;;;;;;;-2.25;100.00;101094.81;4987951;28;20208;-56
2022/03/10 03:21:31;;;;;;;26.00;18.87;;;;;;;-2.25;100.00;101108.38;4987358;28;20185;-56
2022/03/10 03:23:56;;;;;;;27.07;19.57;;;;;;;-2.23;100.00;101109.34;4986389;28;20205;-55
2022/03/10 03:26:21;;;;;;;25.03;18.17;;;;;;;-2.20;100.00;101113.72;4983855;28;20189;-56
2022/03/10 03:28:47;;;;;;;24.27;19.10;;;;;;;-2.19;100.00;101105.31;4985745;28;20193;-55
2022/03/10 03:31:12;;;;;;;22.87;18.30;;;;;;;-2.20;100.00;101106.09;4985852;28;20200;-56
2022/03/10 03:33:39;;;;;;;23.23;17.50;;;;;;;-2.20;100.00;101112.06;4984452;28;20312;-56
2022/03/10 03:36:05;;;;;;;23.93;19.20;;;;;;;-2.19;100.00;101102.78;4983944;28;20195;-55
2022/03/10 03:38:33;;;;;;;24.97;18.50;;;;;;;-2.19;100.00;101108.72;4987866;28;20190;-54
2022/03/10 03:40:58;;;;;;;24.53;19.17;;;;;;;-2.21;100.00;101114.50;4982588;28;20252;-55
2022/03/10 03:43:24;;;;;;;21.20;17.13;;;;;;;-2.24;100.00;101111.78;4986163;28;20208;-55
2022/03/10 03:45:50;;;;;;;20.90;17.17;;;;;;;-2.28;100.00;101110.75;4987747;28;20190;-54
2022/03/10 03:48:15;;;;;;;21.30;16.87;;;;;;;-2.32;100.00;101117.31;4985132;28;20634;-55
2022/03/10 03:50:40;;;;;;;19.10;16.23;;;;;;;-2.36;100.00;101123.00;4988304;28;20193;-56
2022/03/10 03:53:06;;;;;;;23.67;17.60;;;;;;;-2.39;100.00;101116.88;4990440;28;20220;-55
2022/03/10 03:55:31;;;;;;;21.63;17.00;;;;;;;-2.43;100.00;101115.84;4991414;28;20217;-56
2022/03/10 03:57:57;;;;;;;21.17;17.20;;;;;;;-2.45;100.00;101123.34;4987223;28;20656;-55
2022/03/10 04:00:22;;;;;;;23.93;16.97;;;;;;;-2.47;100.00;101118.97;4986067;28;20193;-55
2022/03/10 04:02:47;;;;;;;22.93;16.97;;;;;;;-2.48;100.00;101123.16;4986565;28;20267;-57
2022/03/10 04:05:13;;;;;;;22.40;17.00;;;;;;;-2.48;100.00;101125.69;4989264;28;20197;-57
2022/03/10 04:07:39;;;;;;;19.67;16.70;;;;;;;-2.47;100.00;101121.50;4984754;28;20201;-57
2022/03/10 04:10:07;;;;;;;22.70;17.17;;;;;;;-2.46;100.00;101123.25;4990797;28;20192;-56
2022/03/10 04:12:32;;;;;;;21.10;17.20;;;;;;;-2.47;100.00;101122.38;4994708;28;20211;-54
2022/03/10 04:14:59;;;;;;;22.33;17.23;;;;;;;-2.48;100.00;101127.38;4983781;28;20622;-57
2022/03/10 04:17:25;;;;;;;21.00;17.00;;;;;;;-2.48;100.00;101125.69;4985648;28;20621;-56
2022/03/10 04:19:50;;;;;;;20.73;16.80;;;;;;;-2.49;100.00;101129.00;4988609;28;20194;-56
2022/03/10 04:22:16;;;;;;;20.83;16.90;;;;;;;-2.50;100.00;101126.41;4985895;28;20206;-55
2022/03/10 04:24:41;;;;;;;21.63;15.83;;;;;;;-2.54;100.00;101129.53;4989187;28;20212;-55
2022/03/10 04:27:06;;;;;;;22.53;17.67;;;;;;;-2.58;100.00;101120.88;4988715;28;20189;-57
2022/03/10 04:29:32;;;;;;;23.23;17.53;;;;;;;-2.61;100.00;101121.59;4990633;28;20700;-56
2022/03/10 04:31:57;;;;;;;23.30;18.87;;;;;;;-2.59;100.00;101121.66;4991899;28;20354;-55
2022/03/10 04:34:23;;;;;;;23.53;18.07;;;;;;;-2.59;100.00;101115.75;4987664;28;20221;-56
2022/03/10 04:36:48;;;;;;;25.93;18.87;;;;;;;-2.61;100.00;101123.22;4992789;28;20594;-56
2022/03/10 04:39:13;;;;;;;23.70;17.97;;;;;;;-2.65;100.00;101127.25;4985182;28;20197;-56
2022/03/10 04:41:39;;;;;;;20.80;16.97;;;;;;;-2.67;100.00;101123.75;4987116;28;20193;-56
2022/03/10 04:44:04;;;;;;;21.57;16.57;;;;;;;-2.71;100.00;101118.44;4984580;28;20209;-56
2022/03/10 04:46:30;;;;;;;23.37;18.17;;;;;;;-2.73;100.00;101120.00;4989933;28;20646;-56
2022/03/10 04:48:56;;;;;;;22.17;17.37;;;;;;;-2.75;100.00;101114.84;4992025;28;20189;-55
2022/03/10 04:51:21;;;;;;;23.37;17.83;;;;;;;-2.73;100.00;101117.47;4991869;28;21911;-56
2022/03/10 04:53:46;;;;;;;22.13;17.23;;;;;;;-2.74;100.00;101116.59;4989817;28;20221;-54
2022/03/10 04:56:12;;;;;;;24.67;17.33;;;;;;;-2.77;100.00;101117.28;4987838;28;20193;-55
2022/03/10 04:58:38;;;;;;;23.97;17.97;;;;;;;-2.77;100.00;101117.28;4991216;28;20657;-56
2022/03/10 05:01:03;;;;;;;24.77;18.97;;;;;;;-2.80;100.00;101112.03;4991194;28;20674;-55
2022/03/10 05:03:30;;;;;;;24.10;18.17;;;;;;;-2.81;100.00;101117.91;4996441;28;20809;-55
2022/03/10 05:05:56;;;;;;;21.73;17.37;;;;;;;-2.86;100.00;101116.75;4988933;28;20196;-55
2022/03/10 05:08:21;;;;;;;20.93;17.73;;;;;;;-2.89;100.00;101123.28;4993110;28;20574;-55
2022/03/10 05:10:46;;;;;;;21.77;16.87;;;;;;;-2.95;100.00;101114.53;5000516;28;20420;-55
2022/03/10 05:13:12;;;;;;;22.93;17.57;;;;;;;-2.99;100.00;101125.25;5001518;28;20217;-56
2022/03/10 05:15:37;;;;;;;20.93;16.80;;;;;;;-3.01;100.00;101125.97;4989056;28;20181;-55
2022/03/10 05:18:04;;;;;;;21.37;17.30;;;;;;;-3.04;100.00;101124.13;4993688;28;20185;-56
2022/03/10 05:20:31;;;;;;;23.70;18.47;;;;;;;-3.05;100.00;101132.50;4991627;28;20356;-54
2022/03/10 05:22:59;;;;;;;21.73;17.23;;;;;;;-3.09;100.00;101128.91;5001610;28;20212;-54
2022/03/10 05:25:30;;;;;;;21.07;16.63;;;;;;;-3.08;100.00;101125.59;4998132;28;20187;-57
2022/03/10 05:27:55;;;;;;;21.87;17.30;;;;;;;-3.08;100.00;101132.31;4996846;28;20189;-57
2022/03/10 05:30:21;;;;;;;23.00;17.33;;;;;;;-3.08;100.00;101137.38;5015082;28;20199;-56
2022/03/10 05:32:46;;;;;;;21.87;19.07;;;;;;;-3.08;100.00;101139.91;4998185;28;20205;-56
2022/03/10 05:35:14;;;;;;;24.47;19.37;;;;;;;-3.09;100.00;101141.56;5001186;28;20228;-54
2022/03/10 05:37:41;;;;;;;22.93;17.43;;;;;;;-3.11;100.00;101143.16;5001135;28;20193;-54
2022/03/10 05:40:09;;;;;;;23.50;18.00;;;;;;;-3.10;100.00;101151.63;5002002;28;20225;-55
2022/03/10 05:42:37;;;;;;;24.03;17.23;;;;;;;-3.12;100.00;101148.09;4991286;28;20189;-55
2022/03/10 05:45:03;;;;;;;22.47;18.83;;;;;;;-3.12;100.00;101150.63;5001278;28;20178;-56
2022/03/10 05:47:28;;;;;;;22.67;18.30;;;;;;;-3.15;100.00;101146.28;4988986;28;20224;-53
2022/03/10 05:49:54;;;;;;;24.03;17.77;;;;;;;-3.17;100.00;101150.38;4986452;28;20197;-56
2022/03/10 05:52:19;;;;;;;26.50;18.47;;;;;;;-3.20;100.00;101152.72;4985203;28;20193;-56
2022/03/10 05:54:44;;;;;;;26.57;19.40;;;;;;;-3.22;100.00;101152.63;4987978;28;20241;-55
2022/03/10 05:57:10;;;;;;;25.87;20.53;;;;;;;-3.20;100.00;101147.66;4994537;28;20185;-55
2022/03/10 05:59:35;;;;;;;24.97;19.83;;;;;;;-3.18;100.00;101150.28;4994131;28;20196;-55
2022/03/10 06:02:00;;;;;;;27.90;21.87;;;;;;;-3.16;100.00;101144.53;4990941;28;20189;-55
2022/03/10 06:04:26;;;;;;;27.93;19.70;;;;;;;-3.12;100.00;101148.09;4992809;28;20201;-56
2022/03/10 06:06:51;;;;;;;35.67;21.43;;;;;;;-3.02;100.00;101154.59;4989299;28;20239;-55
2022/03/10 06:09:17;;;;;;;33.00;20.73;;;;;;;-2.98;100.00;101154.00;4995697;28;20173;-55
2022/03/10 06:11:43;;;;;;;28.17;19.47;;;;;;;-2.95;100.00;101151.66;4992168;28;20680;-56
2022/03/10 06:14:10;;;;;;;27.00;18.27;;;;;;;-2.88;100.00;101160.50;4986621;28;20256;-56
2022/03/10 06:16:35;;;;;;;26.20;19.83;;;;;;;-2.81;100.00;101160.97;4987181;28;20186;-56
2022/03/10 06:19:03;;;;;;;29.37;20.40;;;;;;;-2.73;100.00;101156.34;4986819;28;20220;-56
2022/03/10 06:21:29;;;;;;;25.10;18.17;;;;;;;-2.64;100.00;101159.41;4994133;28;20275;-57
2022/03/10 06:23:55;;;;;;;23.33;18.10;;;;;;;-2.48;100.00;101161.16;4988844;28;20289;-56
2022/03/10 06:26:20;;;;;;;22.77;16.50;;;;;;;-2.20;100.00;101162.78;4993108;28;20187;-56
2022/03/10 06:28:45;;;;;;;24.37;19.00;;;;;;;-1.95;100.00;101160.72;4998880;28;20193;-55
2022/03/10 06:31:11;;;;;;;25.00;18.17;;;;;;;-1.77;100.00;101168.50;4991181;28;20189;-56
2022/03/10 06:33:36;;;;;;;22.93;17.67;;;;;;;-1.69;100.00;101167.25;4982986;28;20214;-55
2022/03/10 06:36:05;;;;;;;25.00;18.90;;;;;;;-1.58;100.00;101168.72;4987685;28;20205;-57
2022/03/10 06:38:30;;;;;;;24.53;19.00;;;;;;;-1.46;100.00;101175.28;4991375;28;20215;-57
2022/03/10 06:40:56;;;;;;;23.30;17.93;;;;;;;-1.33;100.00;101169.16;4985968;28;20562;-56
2022/03/10 06:43:21;;;;;;;24.93;19.47;;;;;;;-1.18;100.00;101169.13;4986647;28;20208;-57
2022/03/10 06:45:46;;;;;;;24.60;18.00;;;;;;;-1.06;100.00;101174.00;4987180;28;20197;-56
2022/03/10 06:48:12;;;;;;;23.23;18.00;;;;;;;-0.95;100.00;101173.75;4991365;28;20186;-55
2022/03/10 06:50:37;;;;;;;24.03;18.33;;;;;;;-0.89;100.00;101174.84;4988122;28;20224;-57
2022/03/10 06:53:04;;;;;;;23.50;17.90;;;;;;;-0.77;100.00;101184.00;4982471;28;20227;-55
2022/03/10 06:55:29;;;;;;;24.10;17.20;;;;;;;-0.63;100.00;101186.38;4985785;28;20537;-54
2022/03/10 06:57:55;;;;;;;20.20;16.67;;;;;;;-0.46;100.00;101187.22;4997928;28;20226;-56
2022/03/10 07:00:21;;;;;;;23.37;17.90;;;;;;;-0.30;99.89;101183.75;4994215;28;20646;-55
2022/03/10 07:02:48;;;;;;;24.60;18.33;;;;;;;-0.22;99.57;101187.56;4989340;28;20208;-56
2022/03/10 07:05:13;;;;;;;23.77;17.50;;;;;;;-0.11;99.43;101189.78;4997862;28;20186;-56
2022/03/10 07:07:39;;;;;;;23.27;17.67;;;;;;;0.00;99.20;101186.09;4993554;28;20649;-55
2022/03/10 07:10:05;;;;;;;24.43;17.57;;;;;;;0.10;99.16;101182.31;4999326;28;20201;-55
2022/03/10 07:12:34;;;;;;;22.07;16.73;;;;;;;0.16;99.03;101190.25;4986756;28;20186;-56
2022/03/10 07:15:00;;;;;;;21.93;15.80;;;;;;;0.18;99.28;101193.75;4988992;28;20743;-54
2022/03/10 07:17:25;;;;;;;26.37;19.40;;;;;;;0.19;99.11;101202.22;4986521;28;20278;-56
2022/03/10 07:19:50;;;;;;;22.90;18.90;;;;;;;0.13;99.34;101200.28;4990893;28;20188;-56
2022/03/10 07:22:18;;;;;;;29.23;21.43;;;;;;;0.09;99.52;101203.47;4996299;28;20213;-56
2022/03/10 07:24:43;;;;;;;33.87;21.47;;;;;;;0.09;99.54;101199.25;5002614;28;20545;-56
2022/03/10 07:27:09;;;;;;;26.90;20.60;;;;;;;0.14;99.87;101202.91;4979861;28;20201;-55
2022/03/10 07:29:34;;;;;;;24.63;20.03;;;;;;;0.23;100.00;101204.13;4986783;28;20203;-56
2022/03/10 07:32:00;;;;;;;30.23;21.07;;;;;;;0.28;100.00;101201.00;4987182;28;20283;-55
2022/03/10 07:34:25;;;;;;;26.50;20.93;;;;;;;0.36;100.00;101210.69;4986111;28;20237;-56
2022/03/10 07:36:50;;;;;;;31.47;21.43;;;;;;;0.43;99.67;101198.34;4994989;28;20553;-54
2022/03/10 07:39:16;;;;;;;29.03;23.87;;;;;;;0.43;98.27;101205.97;4995954;28;20222;-57
2022/03/10 07:41:41;;;;;;;32.20;23.37;;;;;;;0.48;97.69;101205.28;5002473;28;20233;-54
2022/03/10 07:44:06;;;;;;;33.27;23.37;;;;;;;0.53;96.74;101211.47;4995678;28;20236;-56
2022/03/10 07:46:32;;;;;;;30.77;23.27;;;;;;;0.58;96.00;101199.84;4995569;28;20223;-56
2022/03/10 07:48:57;;;;;;;30.37;23.53;;;;;;;0.64;95.56;101205.22;4991687;28;20207;-56
2022/03/10 07:51:23;;;;;;;28.93;22.33;;;;;;;0.70;95.38;101209.72;4989876;28;20196;-56
2022/03/10 07:53:48;;;;;;;29.30;23.40;;;;;;;0.76;95.61;101204.91;4997964;28;20223;-56
2022/03/10 07:56:14;;;;;;;27.80;22.50;;;;;;;0.80;95.35;101204.25;4990427;28;20785;-57
2022/03/10 07:58:39;;;;;;;30.77;22.80;;;;;;;0.86;95.40;101203.66;4996750;28;20808;-55
2022/03/10 08:01:04;;;;;;;28.40;23.10;;;;;;;0.88;94.58;101200.38;4996237;28;20195;-56
2022/03/10 08:03:30;;;;;;;30.83;23.57;;;;;;;0.96;94.77;101200.72;4995807;28;20223;-54
2022/03/10 08:05:55;;;;;;;29.93;22.13;;;;;;;1.00;93.95;101200.06;4995391;28;20916;-55
2022/03/10 08:08:21;;;;;;;30.80;22.37;;;;;;;1.07;93.91;101196.09;4994719;28;20185;-56
2022/03/10 08:10:47;;;;;;;24.20;20.60;;;;;;;1.14;93.90;101198.09;4993402;28;20248;-56
2022/03/10 08:13:12;;;;;;;31.60;21.27;;;;;;;1.26;94.00;101190.13;5004349;28;20252;-56
2022/03/10 08:15:38;;;;;;;26.63;21.47;;;;;;;1.36;93.69;101187.16;4988724;28;20583;-56
2022/03/10 08:18:04;;;;;;;28.33;21.10;;;;;;;1.47;93.59;101189.31;4998668;28;20189;-56
2022/03/10 08:20:29;;;;;;;25.30;20.07;;;;;;;1.58;92.95;101185.53;4995532;28;20289;-57
2022/03/10 08:22:55;;;;;;;24.07;19.40;;;;;;;1.69;92.89;101178.34;4985904;28;20571;-56
2022/03/10 08:25:20;;;;;;;24.63;19.90;;;;;;;1.80;92.53;101172.00;4995079;28;20239;-55
2022/03/10 08:27:49;;;;;;;26.77;19.13;;;;;;;1.93;92.21;101169.94;4997628;28;20201;-56
2022/03/10 08:30:15;;;;;;;21.50;18.40;;;;;;;2.07;91.92;101167.94;4995379;28;20700;-56
2022/03/10 08:32:45;;;;;;;21.83;18.77;;;;;;;2.20;91.54;101164.19;5006928;28;20231;-56
2022/03/10 08:35:11;;;;;;;22.70;18.67;;;;;;;2.34;91.20;101163.06;5000254;28;20224;-55
2022/03/10 08:37:37;;;;;;;29.03;19.70;;;;;;;2.49;90.92;101155.09;4997772;28;20192;-56
2022/03/10 08:40:02;;;;;;;26.30;19.07;;;;;;;2.58;90.19;101157.13;5001047;28;20189;-56
2022/03/10 08:42:28;;;;;;;21.93;18.20;;;;;;;2.68;89.91;101159.22;5004824;28;20200;-56
2022/03/10 08:44:53;;;;;;;24.27;20.27;;;;;;;2.79;89.19;101156.22;4999935;28;20191;-55
2022/03/10 08:47:19;;;;;;;24.83;19.03;;;;;;;2.86;87.55;101145.38;5007793;28;20196;-56
2022/03/10 08:49:44;;;;;;;26.40;20.83;;;;;;;2.98;86.36;101150.06;5002653;28;20215;-57
2022/03/10 08:52:09;;;;;;;26.73;19.97;;;;;;;3.07;86.00;101145.28;5004010;28;20196;-55
2022/03/10 08:54:35;;;;;;;23.20;19.93;;;;;;;3.11;84.70;101138.56;4996898;28;20307;-56
2022/03/10 08:57:00;;;;;;;23.00;18.23;;;;;;;3.28;84.88;101145.16;5000683;28;20193;-54
2022/03/10 08:59:25;;;;;;;23.97;19.30;;;;;;;3.40;84.48;101142.16;5006973;28;20195;-56
2022/03/10 09:01:51;;;;;;;21.00;17.37;;;;;;;3.53;84.38;101137.44;5001566;28;20197;-55
2022/03/10 09:04:16;;;;;;;21.43;17.80;;;;;;;3.64;84.27;101134.44;4998841;28;20545;-56
2022/03/10 09:06:42;;;;;;;22.97;18.93;;;;;;;3.79;84.21;101125.50;5004010;28;20196;-55
2022/03/10 09:09:07;;;;;;;25.10;19.27;;;;;;;3.97;84.25;101122.66;5002490;28;20189;-56
2022/03/10 09:11:33;;;;;;;24.77;19.17;;;;;;;4.15;83.87;101119.81;5000238;28;20220;-56
2022/03/10 09:13:59;;;;;;;22.20;18.30;;;;;;;4.32;83.68;101112.63;4995194;28;20720;-56
2022/03/10 09:16:25;;;;;;;23.90;18.93;;;;;;;4.47;83.61;101114.75;4998190;28;20188;-57
2022/03/10 09:18:50;;;;;;;20.87;17.53;;;;;;;4.63;83.37;101110.09;4993213;28;20201;-56
2022/03/10 09:21:17;;;;;;;20.90;16.97;;;;;;;4.73;83.04;101107.84;4999342;28;20272;-57
2022/03/10 09:23:43;;;;;;;22.30;18.13;;;;;;;4.84;82.50;101107.28;4993820;28;20726;-56
2022/03/10 09:26:08;;;;;;;24.13;20.47;;;;;;;4.95;81.76;101111.00;5003433;28;20732;-57
2022/03/10 09:28:33;;;;;;;21.33;18.50;;;;;;;5.03;81.44;101114.63;4992597;28;20189;-55
2022/03/10 09:30:59;;;;;;;20.37;18.00;;;;;;;5.12;81.40;101106.31;4999879;28;20284;-57
2022/03/10 09:33:25;;;;;;;22.87;19.17;;;;;;;5.25;80.28;101110.09;4998910;28;20204;-57
2022/03/10 09:35:50;;;;;;;22.53;19.37;;;;;;;5.33;79.90;101103.44;5001004;28;20660;-57
2022/03/10 09:38:17;;;;;;;23.67;19.33;;;;;;;5.42;80.24;101096.81;5001390;28;20189;-56
2022/03/10 09:40:42;;;;;;;20.43;17.30;;;;;;;5.48;80.09;101095.28;5009326;28;20666;-56
2022/03/10 09:43:10;;;;;;;21.30;17.83;;;;;;;5.59;80.05;101094.66;5005949;28;20244;-56
2022/03/10 09:45:36;;;;;;;23.60;19.10;;;;;;;5.68;79.68;101091.44;5000313;28;20288;-56
2022/03/10 09:48:02;;;;;;;19.77;16.60;;;;;;;5.76;79.64;101092.50;4999229;28;20194;-56
2022/03/10 09:50:28;;;;;;;21.97;18.07;;;;;;;5.86;79.54;101088.44;5002286;28;20201;-55
2022/03/10 09:52:53;;;;;;;19.63;17.53;;;;;;;5.97;79.41;101086.13;5003641;28;20249;-56
2022/03/10 09:55:19;;;;;;;19.90;17.27;;;;;;;6.06;79.17;101089.81;5002634;28;20651;-56
2022/03/10 09:57:46;;;;;;;25.37;19.57;;;;;;;6.19;78.64;101082.38;4997579;28;20197;-56
2022/03/10 10:00:14;;;;;;;23.50;19.63;;;;;;;6.29;77.80;101080.88;4999343;28;20206;-55
2022/03/10 10:02:41;;;;;;;23.70;20.20;;;;;;;6.43;77.25;101076.03;4994291;28;20217;-56
2022/03/10 10:05:24;;;;;;;22.03;19.63;;;;;;;6.55;77.09;101081.41;4989828;28;20572;-55
2022/03/10 10:08:13;;;;;;;22.57;18.30;;;;;;;6.68;77.14;101070.53;4985840;28;20237;-56
2022/03/10 10:10:46;;;;;;;21.40;18.27;;;;;;;6.81;76.98;101065.63;4982872;28;20198;-56
2022/03/10 10:13:27;;;;;;;25.17;18.60;;;;;;;6.97;75.83;101064.19;5006131;28;20222;-56
2022/03/10 10:16:14;;;;;;;25.40;19.93;;;;;;;7.13;73.72;101061.06;4986403;28;20202;-55
2022/03/10 10:18:40;;;;;;;25.00;19.57;;;;;;;7.24;73.25;101060.41;4988655;28;20194;-56
2022/03/10 10:21:07;;;;;;;26.80;20.60;;;;;;;7.43;71.92;101053.84;4990125;28;20558;-57
2022/03/10 10:23:35;;;;;;;24.03;19.40;;;;;;;7.59;71.28;101050.69;4995153;28;20215;-56
2022/03/10 10:26:07;;;;;;;22.17;18.80;;;;;;;7.69;71.58;101043.06;4990782;28;20669;-56
2022/03/10 10:28:43;;;;;;;25.83;19.93;;;;;;;7.85;70.82;101046.75;4987862;28;20677;-55
2022/03/10 10:31:12;;;;;;;20.20;17.97;;;;;;;7.94;69.96;101044.31;4988711;28;20215;-55
2022/03/10 10:33:41;;;;;;;23.10;19.03;;;;;;;8.16;69.00;101031.72;5002293;28;20297;-56
2022/03/10 10:36:18;;;;;;;20.87;18.17;;;;;;;8.24;69.37;101033.50;4998908;28;20227;-55
2022/03/10 10:38:45;;;;;;;20.93;18.33;;;;;;;8.33;69.54;101039.66;5004859;28;20678;-56
2022/03/10 10:41:19;;;;;;;21.57;18.00;;;;;;;8.45;69.60;101029.47;5001553;28;20655;-56
2022/03/10 10:43:47;;;;;;;21.33;18.60;;;;;;;8.62;69.39;101024.53;4999891;28;20604;-57
2022/03/10 10:46:46;;;;;;;22.10;18.27;;;;;;;8.79;68.68;101009.25;5005135;28;20190;-56
2022/03/10 10:49:17;;;;;;;27.93;19.17;;;;;;;9.00;67.84;101021.50;4998628;28;20517;-56
2022/03/10 10:51:46;;;;;;;24.03;18.53;;;;;;;9.17;67.45;101012.16;4992907;28;20233;-55
2022/03/10 10:54:20;;;;;;;18.97;16.93;;;;;;;9.28;67.98;101021.72;4982771;28;20235;-56
2022/03/10 10:57:01;;;;;;;21.37;17.30;;;;;;;9.36;68.21;101008.88;4987825;28;20210;-57
2022/03/10 10:59:36;;;;;;;23.47;18.83;;;;;;;9.46;66.61;101010.66;4987857;28;20193;-55
2022/03/10 11:02:11;;;;;;;21.00;18.33;;;;;;;9.61;65.83;101002.16;4987692;28;20215;-55
2022/03/10 11:04:45;;;;;;;20.83;18.23;;;;;;;9.87;65.98;101003.19;4985067;28;20615;-56
2022/03/10 11:07:11;;;;;;;19.83;17.27;;;;;;;9.96;65.86;100995.47;4987935;28;20703;-56
2022/03/10 11:09:39;;;;;;;19.23;17.13;;;;;;;10.07;65.71;100990.34;4984365;28;20197;-56
2022/03/10 11:12:05;;;;;;;19.77;16.13;;;;;;;10.18;65.91;100990.41;4981007;28;20197;-55
2022/03/10 11:14:31;;;;;;;18.93;16.37;;;;;;;10.31;65.57;100980.94;4986229;28;20292;-58